首页
METAR-TAF:

METAR-TAF

机场 :

波纳佩国际机场

波纳佩, 密克罗尼西亚群岛

纬度: 06-59N, 经度: 158-12E, 海拔: 2米

当前天气观测

该预报发布于47分钟前的01:56 UTC
风速8节,风向东转东北
温度 32°C
湿度 71%
气压 1011 hPa
能見度: 24.1公里
多云层高于1800英尺
阴天层高于30000英尺

METAR: PTPN 200156Z 06008KT 15SM BKN018 OVC300 32/26 A2985

时间: 13:43 (02:43 UTC)

预报

该预报发布于3小时和16分钟前的23:27 UTC
预报有效从20日的 00点(UTC)到 20日的 24点(UTC)
风速10节,风向南转南东
能見度: 10公里
散云层高于1800英尺
多云层高于13000英尺
附近有阵雨,

TAF: PTPN 192327Z 2000/2024 15010KT P6SM VCSH SCT018 BKN130

超过4000个机场的气象观测和天气预报(METAR&TAF报告)。

可查询的气象台以黄色和红色小点在地图上表示。

将鼠标移到小点上方,可查看气象台名称。

然后点击查看天气观测和预报。

如需切换地图:点击带黑十字的绿色按钮放大地图;点击带横线的绿色按钮缩小地图;或者点击绿色箭头查看邻近地区的地图。


METAR-TAF: